sensor_id;sensor_type;location;lat;lon;timestamp;pressure;altitude;pressure_sealevel;temperature;humidity
33949;BME280;20229;49.856;19.030;2022-12-07T00:00:51;101165.05;;;3.28;100.00
33949;BME280;20229;49.856;19.030;2022-12-07T00:06:15;101162.35;;;3.28;100.00
33949;BME280;20229;49.856;19.030;2022-12-07T00:11:20;101151.50;;;3.33;100.00
33949;BME280;20229;49.856;19.030;2022-12-07T00:16:39;101154.21;;;3.31;100.00
33949;BME280;20229;49.856;19.030;2022-12-07T00:21:43;101145.13;;;3.35;100.00
33949;BME280;20229;49.856;19.030;2022-12-07T00:27:05;101145.13;;;3.35;100.00
33949;BME280;20229;49.856;19.030;2022-12-07T00:32:08;101139.62;;;3.42;100.00
33949;BME280;20229;49.856;19.030;2022-12-07T00:37:30;101136.98;;;3.39;100.00
33949;BME280;20229;49.856;19.030;2022-12-07T00:42:34;101127.89;;;3.43;100.00
33949;BME280;20229;49.856;19.030;2022-12-07T00:47:56;101124.31;;;3.42;100.00
33949;BME280;20229;49.856;19.030;2022-12-07T00:52:59;101123.30;;;3.48;100.00
33949;BME280;20229;49.856;19.030;2022-12-07T00:58:22;101130.54;;;3.46;100.00
33949;BME280;20229;49.856;19.030;2022-12-07T01:03:26;101129.57;;;3.50;100.00
33949;BME280;20229;49.856;19.030;2022-12-07T01:08:47;101117.91;;;3.48;100.00
33949;BME280;20229;49.856;19.030;2022-12-07T01:13:53;101117.84;;;3.51;100.00
33949;BME280;20229;49.856;19.030;2022-12-07T01:19:13;101120.56;;;3.49;100.00
33949;BME280;20229;49.856;19.030;2022-12-07T01:24:16;101110.52;;;3.57;100.00
33949;BME280;20229;49.856;19.030;2022-12-07T01:29:38;101113.16;;;3.59;100.00
33949;BME280;20229;49.856;19.030;2022-12-07T01:34:42;101102.24;;;3.65;100.00
33949;BME280;20229;49.856;19.030;2022-12-07T01:40:05;101096.91;;;3.62;99.96
33949;BME280;20229;49.856;19.030;2022-12-07T01:50:30;101095.91;;;3.66;99.92
33949;BME280;20229;49.856;19.030;2022-12-07T01:55:40;101086.81;;;3.70;99.77
33949;BME280;20229;49.856;19.030;2022-12-07T02:00:55;101095.91;;;3.66;99.71
33949;BME280;20229;49.856;19.030;2022-12-07T02:05:59;101096.72;;;3.71;99.40
33949;BME280;20229;49.856;19.030;2022-12-07T02:11:21;101097.67;;;3.69;99.41
33949;BME280;20229;49.856;19.030;2022-12-07T02:16:38;101092.16;;;3.73;99.14
33949;BME280;20229;49.856;19.030;2022-12-07T02:21:52;101091.27;;;3.73;99.21
33949;BME280;20229;49.856;19.030;2022-12-07T02:32:26;101088.53;;;3.74;99.13
33949;BME280;20229;49.856;19.030;2022-12-07T02:37:39;101091.16;;;3.77;99.15
33949;BME280;20229;49.856;19.030;2022-12-07T02:42:49;101091.23;;;3.74;98.96
33949;BME280;20229;49.856;19.030;2022-12-07T02:47:57;101085.75;;;3.79;98.93
33949;BME280;20229;49.856;19.030;2022-12-07T02:53:03;101084.92;;;3.75;98.62
33949;BME280;20229;49.856;19.030;2022-12-07T02:58:16;101093.80;;;3.80;98.58
33949;BME280;20229;49.856;19.030;2022-12-07T03:03:30;101097.44;;;3.79;98.76
33949;BME280;20229;49.856;19.030;2022-12-07T03:08:52;101086.56;;;3.82;98.53
33949;BME280;20229;49.856;19.030;2022-12-07T03:19:14;101082.05;;;3.83;98.40
33949;BME280;20229;49.856;19.030;2022-12-07T03:24:24;101092.88;;;3.81;98.42
33949;BME280;20229;49.856;19.030;2022-12-07T03:29:35;101084.75;;;3.83;98.05
33949;BME280;20229;49.856;19.030;2022-12-07T03:34:53;101088.41;;;3.80;98.09
33949;BME280;20229;49.856;19.030;2022-12-07T03:40:10;101081.18;;;3.81;97.45
33949;BME280;20229;49.856;19.030;2022-12-07T03:45:14;101070.49;;;3.76;97.59
33949;BME280;20229;49.856;19.030;2022-12-07T03:50:25;101072.19;;;3.80;97.58
33949;BME280;20229;49.856;19.030;2022-12-07T03:55:41;101074.95;;;3.79;97.58
33949;BME280;20229;49.856;19.030;2022-12-07T04:00:47;101065.86;;;3.81;97.52
33949;BME280;20229;49.856;19.030;2022-12-07T04:06:03;101074.90;;;3.80;97.44
33949;BME280;20229;49.856;19.030;2022-12-07T04:11:07;101070.36;;;3.82;97.33
33949;BME280;20229;49.856;19.030;2022-12-07T04:16:29;101078.53;;;3.79;97.26
33949;BME280;20229;49.856;19.030;2022-12-07T04:21:32;101074.88;;;3.82;97.24
33949;BME280;20229;49.856;19.030;2022-12-07T04:26:54;101075.82;;;3.79;97.44
33949;BME280;20229;49.856;19.030;2022-12-07T04:31:58;101075.77;;;3.82;97.49
33949;BME280;20229;49.856;19.030;2022-12-07T04:37:20;101079.48;;;3.77;97.75
33949;BME280;20229;49.856;19.030;2022-12-07T04:42:23;101076.71;;;3.80;97.60
33949;BME280;20229;49.856;19.030;2022-12-07T04:47:45;101081.29;;;3.76;97.73
33949;BME280;20229;49.856;19.030;2022-12-07T04:52:49;101080.36;;;3.77;97.35
33949;BME280;20229;49.856;19.030;2022-12-07T04:58:12;101081.36;;;3.73;97.64
33949;BME280;20229;49.856;19.030;2022-12-07T05:03:15;101082.24;;;3.74;97.72
33949;BME280;20229;49.856;19.030;2022-12-07T05:08:37;101094.91;;;3.70;97.87
33949;BME280;20229;49.856;19.030;2022-12-07T05:13:40;101086.81;;;3.70;97.59
33949;BME280;20229;49.856;19.030;2022-12-07T05:19:03;101093.22;;;3.66;97.74
33949;BME280;20229;49.856;19.030;2022-12-07T05:24:09;101086.00;;;3.67;97.48
33949;BME280;20229;49.856;19.030;2022-12-07T05:29:28;101094.15;;;3.65;97.78
33949;BME280;20229;49.856;19.030;2022-12-07T05:34:31;101094.15;;;3.65;97.82
33949;BME280;20229;49.856;19.030;2022-12-07T05:39:54;101098.74;;;3.60;97.87
33949;BME280;20229;49.856;19.030;2022-12-07T05:44:57;101099.62;;;3.62;97.94
33949;BME280;20229;49.856;19.030;2022-12-07T05:50:19;101105.13;;;3.56;97.78
33949;BME280;20229;49.856;19.030;2022-12-07T05:55:23;101096.14;;;3.55;98.32
33949;BME280;20229;49.856;19.030;2022-12-07T06:00:45;101103.42;;;3.52;98.10
33949;BME280;20229;49.856;19.030;2022-12-07T06:05:48;101100.71;;;3.53;98.17
33949;BME280;20229;49.856;19.030;2022-12-07T06:11:11;101113.39;;;3.48;98.10
33949;BME280;20229;49.856;19.030;2022-12-07T06:16:26;101104.37;;;3.49;98.10
33949;BME280;20229;49.856;19.030;2022-12-07T06:21:36;101115.32;;;3.43;98.25
33949;BME280;20229;49.856;19.030;2022-12-07T06:26:40;101109.00;;;3.43;98.25
33949;BME280;20229;49.856;19.030;2022-12-07T06:32:02;101115.39;;;3.39;98.33
33949;BME280;20229;49.856;19.030;2022-12-07T06:37:06;101114.49;;;3.40;98.35
33949;BME280;20229;49.856;19.030;2022-12-07T06:42:27;101130.73;;;3.37;98.57
33949;BME280;20229;49.856;19.030;2022-12-07T06:47:31;101127.11;;;3.38;98.35
33949;BME280;20229;49.856;19.030;2022-12-07T06:52:53;101135.31;;;3.31;98.44
33949;BME280;20229;49.856;19.030;2022-12-07T06:57:56;101136.19;;;3.33;98.56
33949;BME280;20229;49.856;19.030;2022-12-07T07:03:19;101138.07;;;3.28;98.60
33949;BME280;20229;49.856;19.030;2022-12-07T07:08:22;101141.64;;;3.30;98.33
33949;BME280;20229;49.856;19.030;2022-12-07T07:13:45;101157.05;;;3.25;98.65
33949;BME280;20229;49.856;19.030;2022-12-07T07:18:49;101139.00;;;3.27;98.54
33949;BME280;20229;49.856;19.030;2022-12-07T07:24:10;101155.24;;;3.26;98.84
33949;BME280;20229;49.856;19.030;2022-12-07T07:29:14;101148.87;;;3.28;98.95
33949;BME280;20229;49.856;19.030;2022-12-07T07:34:36;101151.66;;;3.24;98.93
33949;BME280;20229;49.856;19.030;2022-12-07T07:39:39;101152.50;;;3.27;99.41
33949;BME280;20229;49.856;19.030;2022-12-07T07:45:02;101158.83;;;3.26;99.15
33949;BME280;20229;49.856;19.030;2022-12-07T07:50:06;101168.63;;;3.30;99.20
33949;BME280;20229;49.856;19.030;2022-12-07T07:55:27;101168.73;;;3.24;98.76
33949;BME280;20229;49.856;19.030;2022-12-07T08:00:31;101169.62;;;3.25;98.54
33949;BME280;20229;49.856;19.030;2022-12-07T08:05:53;101165.20;;;3.22;98.70
33949;BME280;20229;49.856;19.030;2022-12-07T08:10:57;101168.68;;;3.27;98.60
33949;BME280;20229;49.856;19.030;2022-12-07T08:16:19;101173.23;;;3.25;98.50
33949;BME280;20229;49.856;19.030;2022-12-07T08:21:22;101183.05;;;3.29;98.53
33949;BME280;20229;49.856;19.030;2022-12-07T08:26:45;101175.01;;;3.26;98.43
33949;BME280;20229;49.856;19.030;2022-12-07T08:31:48;101176.69;;;3.32;98.27
33949;BME280;20229;49.856;19.030;2022-12-07T08:37:10;101182.91;;;3.35;98.37
33949;BME280;20229;49.856;19.030;2022-12-07T08:42:14;101185.49;;;3.43;98.34
33949;BME280;20229;49.856;19.030;2022-12-07T08:47:40;101181.03;;;3.41;98.03
33949;BME280;20229;49.856;19.030;2022-12-07T08:52:49;101183.55;;;3.50;98.37
33949;BME280;20229;49.856;19.030;2022-12-07T08:58:02;101183.46;;;3.54;98.33
33949;BME280;20229;49.856;19.030;2022-12-07T09:03:06;101176.07;;;3.64;98.16
33949;BME280;20229;49.856;19.030;2022-12-07T09:08:34;101173.43;;;3.61;97.79
33949;BME280;20229;49.856;19.030;2022-12-07T09:13:39;101161.66;;;3.64;97.50
33949;BME280;20229;49.856;19.030;2022-12-07T09:18:53;101175.16;;;3.64;97.33
33949;BME280;20229;49.856;19.030;2022-12-07T09:23:57;101167.88;;;3.67;97.04
33949;BME280;20229;49.856;19.030;2022-12-07T09:29:19;101160.66;;;3.69;96.98
33949;BME280;20229;49.856;19.030;2022-12-07T09:34:22;101154.98;;;3.81;97.00
33949;BME280;20229;49.856;19.030;2022-12-07T09:39:44;101162.12;;;3.86;96.23
33949;BME280;20229;49.856;19.030;2022-12-07T09:44:48;101145.82;;;3.89;95.80
33949;BME280;20229;49.856;19.030;2022-12-07T09:50:23;101141.34;;;3.89;96.00
33949;BME280;20229;49.856;19.030;2022-12-07T09:55:28;101140.28;;;3.95;95.44
33949;BME280;20229;49.856;19.030;2022-12-07T10:00:36;101133.05;;;3.97;95.08
33949;BME280;20229;49.856;19.030;2022-12-07T10:05:45;101123.90;;;4.04;94.91
33949;BME280;20229;49.856;19.030;2022-12-07T10:11:02;101120.12;;;4.11;94.55
33949;BME280;20229;49.856;19.030;2022-12-07T10:21:32;101111.73;;;4.59;92.91
33949;BME280;20229;49.856;19.030;2022-12-07T10:26:51;101105.94;;;4.74;92.46
33949;BME280;20229;49.856;19.030;2022-12-07T10:31:58;101101.26;;;4.81;90.49
33949;BME280;20229;49.856;19.030;2022-12-07T10:42:28;101087.18;;;5.01;89.88
33949;BME280;20229;49.856;19.030;2022-12-07T10:47:47;101083.95;;;5.19;87.66
33949;BME280;20229;49.856;19.030;2022-12-07T11:14:01;101078.15;;;5.33;87.00
33949;BME280;20229;49.856;19.030;2022-12-07T11:40:17;101074.95;;;5.19;84.99
33949;BME280;20229;49.856;19.030;2022-12-07T11:45:27;101067.14;;;5.08;84.18
33949;BME280;20229;49.856;19.030;2022-12-07T11:50:39;101048.59;;;4.94;84.29
33949;BME280;20229;49.856;19.030;2022-12-07T11:55:54;101033.51;;;4.86;85.51
33949;BME280;20229;49.856;19.030;2022-12-07T12:01:22;101029.95;;;4.84;85.50
33949;BME280;20229;49.856;19.030;2022-12-07T12:06:33;101036.87;;;4.94;86.37
33949;BME280;20229;49.856;19.030;2022-12-07T12:22:21;101020.98;;;5.44;84.68
33949;BME280;20229;49.856;19.030;2022-12-07T12:27:34;101035.62;;;5.37;82.91
33949;BME280;20229;49.856;19.030;2022-12-07T12:32:41;101033.87;;;5.36;82.58
33949;BME280;20229;49.856;19.030;2022-12-07T12:37:52;101052.98;;;5.30;81.55
33949;BME280;20229;49.856;19.030;2022-12-07T12:42:57;101045.33;;;5.14;81.53
33949;BME280;20229;49.856;19.030;2022-12-07T12:48:31;101047.45;;;5.03;82.59
33949;BME280;20229;49.856;19.030;2022-12-07T12:53:31;101032.19;;;5.00;81.39
33949;BME280;20229;49.856;19.030;2022-12-07T12:58:43;101038.76;;;4.92;81.46
33949;BME280;20229;49.856;19.030;2022-12-07T13:03:53;101039.86;;;4.85;81.08
33949;BME280;20229;49.856;19.030;2022-12-07T13:19:52;101027.80;;;4.64;82.24
33949;BME280;20229;49.856;19.030;2022-12-07T13:25:07;101029.63;;;4.63;82.38
33949;BME280;20229;49.856;19.030;2022-12-07T13:30:17;101026.19;;;4.57;82.23
33949;BME280;20229;49.856;19.030;2022-12-07T13:35:28;101037.97;;;4.54;83.12
33949;BME280;20229;49.856;19.030;2022-12-07T13:40:32;101051.62;;;4.49;83.28
33949;BME280;20229;49.856;19.030;2022-12-07T13:45:38;101064.33;;;4.46;83.05
33949;BME280;20229;49.856;19.030;2022-12-07T13:50:54;101073.46;;;4.40;83.23
33949;BME280;20229;49.856;19.030;2022-12-07T13:55:58;101069.01;;;4.38;82.83
33949;BME280;20229;49.856;19.030;2022-12-07T14:01:20;101076.22;;;4.39;83.79
33949;BME280;20229;49.856;19.030;2022-12-07T14:06:25;101075.21;;;4.43;83.27
33949;BME280;20229;49.856;19.030;2022-12-07T14:11:48;101073.46;;;4.40;83.14
33949;BME280;20229;49.856;19.030;2022-12-07T14:17:00;101063.52;;;4.42;83.45
33949;BME280;20229;49.856;19.030;2022-12-07T14:27:32;101069.01;;;4.38;83.48
33949;BME280;20229;49.856;19.030;2022-12-07T14:32:39;101057.57;;;4.28;83.35
33949;BME280;20229;49.856;19.030;2022-12-07T14:37:47;101067.40;;;4.30;83.51
33949;BME280;20229;49.856;19.030;2022-12-07T14:43:14;101067.52;;;4.26;83.33
33949;BME280;20229;49.856;19.030;2022-12-07T14:48:18;101068.38;;;4.28;83.67
33949;BME280;20229;49.856;19.030;2022-12-07T14:53:39;101074.88;;;4.19;82.52
33949;BME280;20229;49.856;19.030;2022-12-07T14:58:44;101076.65;;;4.20;82.87
33949;BME280;20229;49.856;19.030;2022-12-07T15:04:02;101074.13;;;4.14;82.99
33949;BME280;20229;49.856;19.030;2022-12-07T15:09:06;101080.43;;;4.13;82.49
33949;BME280;20229;49.856;19.030;2022-12-07T15:14:30;101095.00;;;4.06;82.80
33949;BME280;20229;49.856;19.030;2022-12-07T15:19:33;101077.09;;;4.02;82.78
33949;BME280;20229;49.856;19.030;2022-12-07T15:24:57;101082.66;;;3.96;83.07
33949;BME280;20229;49.856;19.030;2022-12-07T15:30:01;101080.87;;;3.95;83.38
33949;BME280;20229;49.856;19.030;2022-12-07T15:35:23;101092.67;;;3.91;83.38
33949;BME280;20229;49.856;19.030;2022-12-07T15:40:26;101097.07;;;3.95;83.30
33949;BME280;20229;49.856;19.030;2022-12-07T15:45:50;101111.51;;;3.94;82.45
33949;BME280;20229;49.856;19.030;2022-12-07T15:50:53;101107.85;;;3.96;81.80
33949;BME280;20229;49.856;19.030;2022-12-07T15:56:16;101102.58;;;3.90;81.81
33949;BME280;20229;49.856;19.030;2022-12-07T16:01:22;101113.34;;;3.92;81.29
33949;BME280;20229;49.856;19.030;2022-12-07T16:06:42;101124.31;;;3.86;81.55
33949;BME280;20229;49.856;19.030;2022-12-07T16:11:45;101113.41;;;3.89;81.18
33949;BME280;20229;49.856;19.030;2022-12-07T16:17:08;101123.40;;;3.85;81.01
33949;BME280;20229;49.856;19.030;2022-12-07T16:22:12;101129.70;;;3.86;80.59
33949;BME280;20229;49.856;19.030;2022-12-07T16:27:34;101115.40;;;3.80;80.79
33949;BME280;20229;49.856;19.030;2022-12-07T16:32:38;101113.74;;;3.75;80.61
33949;BME280;20229;49.856;19.030;2022-12-07T16:37:59;101120.34;;;3.60;81.10
33949;BME280;20229;49.856;19.030;2022-12-07T16:43:02;101121.39;;;3.53;81.38
33949;BME280;20229;49.856;19.030;2022-12-07T16:48:24;101119.74;;;3.46;81.60
33949;BME280;20229;49.856;19.030;2022-12-07T16:53:28;101120.66;;;3.45;81.38
33949;BME280;20229;49.856;19.030;2022-12-07T16:58:50;101127.22;;;3.31;81.65
33949;BME280;20229;49.856;19.030;2022-12-07T17:03:53;101134.64;;;3.22;81.48
33949;BME280;20229;49.856;19.030;2022-12-07T17:09:16;101136.62;;;3.12;82.06
33949;BME280;20229;49.856;19.030;2022-12-07T17:14:19;101125.88;;;3.09;82.20
33949;BME280;20229;49.856;19.030;2022-12-07T17:19:41;101126.08;;;2.98;82.47
33949;BME280;20229;49.856;19.030;2022-12-07T17:24:45;101131.48;;;2.97;82.29
33949;BME280;20229;49.856;19.030;2022-12-07T17:30:08;101124.47;;;2.88;83.01
33949;BME280;20229;49.856;19.030;2022-12-07T17:35:12;101130.79;;;2.87;83.08
33949;BME280;20229;49.856;19.030;2022-12-07T17:40:33;101130.01;;;2.80;83.31
33949;BME280;20229;49.856;19.030;2022-12-07T17:45:36;101132.75;;;2.77;83.48
33949;BME280;20229;49.856;19.030;2022-12-07T17:50:59;101140.98;;;2.68;83.87
33949;BME280;20229;49.856;19.030;2022-12-07T17:56:15;101130.20;;;2.68;84.25
33949;BME280;20229;49.856;19.030;2022-12-07T18:01:24;101134.84;;;2.60;84.23
33949;BME280;20229;49.856;19.030;2022-12-07T18:06:28;101127.69;;;2.59;84.52
33949;BME280;20229;49.856;19.030;2022-12-07T18:11:50;101134.05;;;2.53;84.65
33949;BME280;20229;49.856;19.030;2022-12-07T18:16:54;101136.61;;;2.61;85.14
33949;BME280;20229;49.856;19.030;2022-12-07T18:22:16;101139.95;;;2.75;84.84
33949;BME280;20229;49.856;19.030;2022-12-07T18:27:19;101132.55;;;2.88;84.36
33949;BME280;20229;49.856;19.030;2022-12-07T18:32:41;101135.16;;;2.93;84.05
33949;BME280;20229;49.856;19.030;2022-12-07T18:37:45;101125.05;;;3.04;83.60
33949;BME280;20229;49.856;19.030;2022-12-07T18:43:08;101123.22;;;3.07;82.90
33949;BME280;20229;49.856;19.030;2022-12-07T18:48:11;101110.48;;;3.14;82.31
33949;BME280;20229;49.856;19.030;2022-12-07T18:53:33;101114.09;;;3.15;82.38
33949;BME280;20229;49.856;19.030;2022-12-07T18:58:37;101117.53;;;3.21;82.59
33949;BME280;20229;49.856;19.030;2022-12-07T19:03:58;101123.85;;;3.20;82.08
33949;BME280;20229;49.856;19.030;2022-12-07T19:09:03;101121.00;;;3.28;81.31
33949;BME280;20229;49.856;19.030;2022-12-07T19:19:41;101104.86;;;3.26;80.13
33949;BME280;20229;49.856;19.030;2022-12-07T19:24:52;101123.90;;;3.19;80.71
33949;BME280;20229;49.856;19.030;2022-12-07T19:29:57;101121.16;;;3.20;79.40
33949;BME280;20229;49.856;19.030;2022-12-07T19:35:16;101120.38;;;3.14;79.26
33949;BME280;20229;49.856;19.030;2022-12-07T19:40:19;101127.75;;;3.04;79.41
33949;BME280;20229;49.856;19.030;2022-12-07T19:45:44;101122.55;;;2.95;79.35
33949;BME280;20229;49.856;19.030;2022-12-07T19:50:47;101127.02;;;2.96;78.93
33949;BME280;20229;49.856;19.030;2022-12-07T19:56:07;101136.88;;;2.97;79.51
33949;BME280;20229;49.856;19.030;2022-12-07T20:01:16;101135.73;;;3.10;79.10
33949;BME280;20229;49.856;19.030;2022-12-07T20:06:33;101139.25;;;3.15;78.79
33949;BME280;20229;49.856;19.030;2022-12-07T20:11:36;101125.63;;;3.21;78.75
33949;BME280;20229;49.856;19.030;2022-12-07T20:17:01;101134.64;;;3.20;77.91
33949;BME280;20229;49.856;19.030;2022-12-07T20:22:05;101139.88;;;3.29;78.23
33949;BME280;20229;49.856;19.030;2022-12-07T20:27:27;101130.02;;;3.27;77.97
33949;BME280;20229;49.856;19.030;2022-12-07T20:32:30;101144.34;;;3.30;77.64
33949;BME280;20229;49.856;19.030;2022-12-07T20:37:52;101147.05;;;3.30;76.89
33949;BME280;20229;49.856;19.030;2022-12-07T20:42:56;101137.96;;;3.34;77.34
33949;BME280;20229;49.856;19.030;2022-12-07T20:48:18;101145.13;;;3.35;77.28
33949;BME280;20229;49.856;19.030;2022-12-07T20:53:21;101137.80;;;3.42;76.51
33949;BME280;20229;49.856;19.030;2022-12-07T20:58:43;101141.38;;;3.43;75.60
33949;BME280;20229;49.856;19.030;2022-12-07T21:03:47;101134.11;;;3.48;76.58
33949;BME280;20229;49.856;19.030;2022-12-07T21:09:10;101140.45;;;3.45;76.15
33949;BME280;20229;49.856;19.030;2022-12-07T21:14:14;101151.13;;;3.51;76.53
33949;BME280;20229;49.856;19.030;2022-12-07T21:19:35;101157.47;;;3.49;76.26
33949;BME280;20229;49.856;19.030;2022-12-07T21:24:39;101142.98;;;3.53;76.62
33949;BME280;20229;49.856;19.030;2022-12-07T21:30:00;101150.23;;;3.51;76.97
33949;BME280;20229;49.856;19.030;2022-12-07T21:35:04;101151.95;;;3.55;76.53
33949;BME280;20229;49.856;19.030;2022-12-07T21:40:26;101159.18;;;3.53;77.09
33949;BME280;20229;49.856;19.030;2022-12-07T21:45:31;101153.71;;;3.57;76.81
33949;BME280;20229;49.856;19.030;2022-12-07T21:50:51;101157.29;;;3.58;77.24
33949;BME280;20229;49.856;19.030;2022-12-07T21:55:55;101153.60;;;3.62;77.03
33949;BME280;20229;49.856;19.030;2022-12-07T22:01:19;101161.74;;;3.61;77.39
33949;BME280;20229;49.856;19.030;2022-12-07T22:06:25;101159.82;;;3.66;77.34
33949;BME280;20229;49.856;19.030;2022-12-07T22:11:43;101170.68;;;3.63;77.45
33949;BME280;20229;49.856;19.030;2022-12-07T22:16:46;101153.55;;;3.65;77.61
33949;BME280;20229;49.856;19.030;2022-12-07T22:22:13;101162.58;;;3.63;77.50
33949;BME280;20229;49.856;19.030;2022-12-07T22:27:18;101165.23;;;3.66;78.03
33949;BME280;20229;49.856;19.030;2022-12-07T22:32:34;101165.27;;;3.64;77.79
33949;BME280;20229;49.856;19.030;2022-12-07T22:37:38;101175.93;;;3.70;77.59
33949;BME280;20229;49.856;19.030;2022-12-07T22:42:59;101173.26;;;3.69;77.93
33949;BME280;20229;49.856;19.030;2022-12-07T22:48:03;101164.23;;;3.71;77.10
33949;BME280;20229;49.856;19.030;2022-12-07T22:53:25;101159.78;;;3.67;77.62
33949;BME280;20229;49.856;19.030;2022-12-07T22:58:29;101164.23;;;3.71;77.39
33949;BME280;20229;49.856;19.030;2022-12-07T23:03:51;101154.39;;;3.67;77.68
33949;BME280;20229;49.856;19.030;2022-12-07T23:08:56;101154.37;;;3.69;77.67
33949;BME280;20229;49.856;19.030;2022-12-07T23:14:30;101149.96;;;3.65;77.50
33949;BME280;20229;49.856;19.030;2022-12-07T23:19:29;101154.37;;;3.69;77.73
33949;BME280;20229;49.856;19.030;2022-12-07T23:24:42;101151.73;;;3.66;77.80
33949;BME280;20229;49.856;19.030;2022-12-07T23:29:45;101152.55;;;3.69;78.12
33949;BME280;20229;49.856;19.030;2022-12-07T23:35:07;101153.55;;;3.65;77.90
33949;BME280;20229;49.856;19.030;2022-12-07T23:40:11;101144.45;;;3.69;77.71
33949;BME280;20229;49.856;19.030;2022-12-07T23:45:36;101144.52;;;3.66;77.59
33949;BME280;20229;49.856;19.030;2022-12-07T23:50:39;101131.87;;;3.68;77.34
33949;BME280;20229;49.856;19.030;2022-12-07T23:56:06;101149.98;;;3.63;77.27
